| time (UTC) | temp F | wind direction | speed MPH | gust MPH | rain 1hr in | rain 24hr in | rain mn in | humidity % | barometer mb |
| 20260506044528 | 60 | 5 | 0.0 | 1.0 | 0.00 | 0.00 | 0.00 | 90 | 1007.7 |
| 20260506043018 | 60 | 42 | 0.0 | 4.0 | 0.00 | 0.00 | 0.00 | 90 | 1007.8 |
| 20260506041516 | 61 | 322 | 0.0 | 3.0 | 0.00 | 0.00 | 0.00 | 90 | 1007.6 |
| 20260506040013 | 62 | 355 | 0.0 | 2.0 | 0.00 | 0.00 | 0.00 | 90 | 1007.4 |
| 20260506034510 | 62 | 350 | 0.0 | 4.0 | 0.00 | 0.00 | 0.00 | 89 | 1007.1 |
| 20260506033006 | 63 | 360 | 0.0 | 2.0 | 0.00 | 0.00 | 0.00 | 88 | 1006.6 |
| 20260506031514 | 63 | 5 | 0.0 | 5.0 | 0.00 | 0.00 | 0.00 | 88 | 1006.6 |
| 20260506030002 | 64 | 18 | 0.0 | 3.0 | 0.00 | 0.00 | 0.00 | 87 | 1006.5 |
| 20260506024559 | 65 | 348 | 0.0 | 5.0 | 0.00 | 0.00 | 0.00 | 86 | 1006.3 |
| 20260506023054 | 66 | 343 | 0.0 | 5.0 | 0.00 | 0.00 | 0.00 | 86 | 1005.9 |
| 20260506021558 | 66 | 25 | 0.0 | 1.0 | 0.00 | 0.00 | 0.00 | 86 | 1005.2 |
| 20260506020049 | 67 | 26 | 0.0 | 1.0 | 0.00 | 0.00 | 0.00 | 84 | 1004.9 |
| 20260506014556 | 67 | 44 | 0.0 | 2.0 | 0.00 | 0.00 | 0.00 | 83 | 1004.7 |
| 20260506013044 | 68 | 48 | 0.0 | 5.0 | 0.00 | 0.00 | 0.00 | 81 | 1004.8 |
| 20260506011542 | 69 | 48 | 0.0 | 1.0 | 0.00 | 0.00 | 0.00 | 81 | 1004.3 |
| 20260506010048 | 70 | 46 | 0.0 | 4.0 | 0.00 | 0.00 | 0.00 | 81 | 1003.7 |
| 20260506004547 | 70 | 5 | 0.0 | 6.0 | 0.00 | 0.00 | 0.00 | 80 | 1003.6 |
| 20260506003040 | 71 | 13 | 0.0 | 6.0 | 0.00 | 0.00 | 0.00 | 79 | 1002.9 |
| 20260506001536 | 72 | 350 | 0.0 | 3.0 | 0.00 | 0.00 | 0.00 | 78 | 1002.8 |
| 20260506000034 | 73 | 311 | 1.0 | 9.0 | 0.00 | 0.00 | 0.00 | 77 | 1002.9 |
| 20260505234535 | 75 | 36 | 0.0 | 8.0 | 0.00 | 0.00 | 0.00 | 76 | 1002.8 |
| 20260505233033 | 77 | 36 | 0.0 | 8.0 | 0.00 | 0.00 | 0.00 | 73 | 1002.5 |
| 20260505231532 | 77 | 329 | 2.0 | 12.0 | 0.00 | 0.00 | 0.00 | 71 | 1002.5 |
| 20260505230042 | 79 | 5 | 3.0 | 14.0 | 0.00 | 0.00 | 0.00 | 70 | 1002.3 |
| 20260505224536 | 81 | 336 | 0.0 | 10.0 | 0.00 | 0.00 | 0.00 | 69 | 1002.0 |
| 20260505223030 | 82 | 328 | 1.0 | 9.0 | 0.00 | 0.00 | 0.00 | 67 | 1001.9 |
| 20260505221530 | 84 | 313 | 2.0 | 10.0 | 0.00 | 0.00 | 0.00 | 64 | 1001.5 |
| 20260505220035 | 85 | 322 | 2.0 | 8.0 | 0.00 | 0.00 | 0.00 | 62 | 1001.5 |
| 20260505214534 | 86 | 326 | 0.0 | 8.0 | 0.00 | 0.00 | 0.00 | 59 | 1001.5 |
| 20260505213027 | 87 | 323 | 2.0 | 12.0 | 0.00 | 0.00 | 0.00 | 55 | 1001.5 |
| 20260505211527 | 87 | 313 | 3.0 | 13.0 | 0.00 | 0.00 | 0.00 | 56 | 1001.5 |
| 20260505210026 | 89 | 255 | 1.0 | 9.0 | 0.00 | 0.00 | 0.00 | 64 | 1001.6 |
| 20260505204524 | 89 | 327 | 4.0 | 10.0 | 0.00 | 0.00 | 0.00 | 63 | 1001.7 |
| 20260505203027 | 88 | 246 | 1.0 | 10.0 | 0.00 | 0.00 | 0.00 | 66 | 1001.8 |
| 20260505201518 | 87 | 273 | 2.0 | 13.0 | 0.00 | 0.00 | 0.00 | 66 | 1002.0 |
| 20260505200017 | 86 | 234 | 4.0 | 14.0 | 0.00 | 0.00 | 0.00 | 67 | 1002.1 |
| 20260505194513 | 86 | 294 | 3.0 | 13.0 | 0.00 | 0.00 | 0.00 | 69 | 1002.1 |
| 20260505193012 | 85 | 256 | 4.0 | 14.0 | 0.00 | 0.00 | 0.00 | 70 | 1002.2 |
| 20260505191511 | 85 | 217 | 1.0 | 15.0 | 0.00 | 0.00 | 0.00 | 72 | 1001.9 |
| 20260505190007 | 84 | 268 | 3.0 | 10.0 | 0.00 | 0.00 | 0.00 | 74 | 1002.1 |
| 20260505184504 | 83 | 240 | 4.0 | 11.0 | 0.00 | 0.00 | 0.00 | 75 | 1002.1 |
| 20260505183003 | 82 | 223 | 2.0 | 12.0 | 0.00 | 0.00 | 0.00 | 77 | 1002.2 |
| 20260505181503 | 82 | 246 | 3.0 | 17.0 | 0.00 | 0.00 | 0.00 | 75 | 1002.2 |
| 20260505180004 | 83 | 242 | 2.0 | 14.0 | 0.00 | 0.00 | 0.00 | 76 | 1002.3 |
| 20260505174600 | 83 | 220 | 2.0 | 11.0 | 0.00 | 0.00 | 0.00 | 77 | 1002.3 |
| 20260505173059 | 81 | 196 | 1.0 | 14.0 | 0.00 | 0.00 | 0.00 | 80 | 1002.2 |
| 20260505171553 | 80 | 221 | 4.0 | 11.0 | 0.00 | 0.00 | 0.00 | 81 | 1002.3 |
| 20260505170049 | 79 | 246 | 0.0 | 15.0 | 0.00 | 0.00 | 0.00 | 84 | 1002.4 |
| 20260505164547 | 79 | 234 | 1.0 | 10.0 | 0.00 | 0.00 | 0.00 | 84 | 1002.4 |
| 20260505163045 | 78 | 242 | 3.0 | 15.0 | 0.00 | 0.00 | 0.00 | 85 | 1002.4 |
| 20260505161544 | 77 | 207 | 3.0 | 11.0 | 0.00 | 0.00 | 0.00 | 86 | 1002.1 |
| 20260505153044 | 75 | 211 | 3.0 | 11.0 | 0.00 | 0.00 | 0.00 | 89 | 1002.0 |
| 20260505151538 | 75 | 226 | 4.0 | 14.0 | 0.00 | 0.00 | 0.00 | 88 | 1001.9 |
| 20260505124625 | 70 | 219 | 1.0 | 9.0 | 0.00 | 0.00 | 0.00 | 98 | 1001.5 |
| 20260505123023 | 70 | 210 | 0.0 | 9.0 | 0.00 | 0.00 | 0.00 | 98 | 1001.3 |
| 20260505121523 | 70 | 184 | 0.0 | 10.0 | 0.00 | 0.00 | 0.00 | 98 | 1001.2 |
| 20260505120035 | 70 | 222 | 1.0 | 11.0 | 0.00 | 0.00 | 0.00 | 98 | 1001.1 |
| 20260505114521 | 70 | 223 | 0.0 | 11.0 | 0.00 | 0.00 | 0.00 | 98 | 1001.0 |
| 20260505113019 | 69 | 217 | 2.0 | 11.0 | 0.00 | 0.00 | 0.00 | 98 | 1001.0 |
| 20260505111528 | 69 | 225 | 0.0 | 8.0 | 0.00 | 0.00 | 0.00 | 98 | 1001.0 |
| 20260505101514 | 70 | 195 | 1.0 | 8.0 | 0.00 | 0.00 | 0.00 | 97 | 1000.8 |
| 20260505100013 | 70 | 190 | 1.0 | 10.0 | 0.00 | 0.00 | 0.00 | 97 | 1000.8 |
| 20260505094510 | 70 | 190 | 3.0 | 9.0 | 0.00 | 0.00 | 0.00 | 96 | 1000.9 |
| 20260505093008 | 71 | 192 | 1.0 | 14.0 | 0.00 | 0.00 | 0.00 | 95 | 1001.0 |
| 20260505091510 | 71 | 225 | 0.0 | 14.0 | 0.00 | 0.00 | 0.00 | 95 | 1001.1 |
| 20260505090005 | 71 | 198 | 4.0 | 14.0 | 0.00 | 0.00 | 0.00 | 94 | 1001.3 |
| 20260505084502 | 71 | 233 | 1.0 | 12.0 | 0.00 | 0.00 | 0.00 | 93 | 1001.3 |
| 20260505083001 | 72 | 212 | 4.0 | 12.0 | 0.00 | 0.00 | 0.00 | 92 | 1001.4 |
| 20260505081604 | 72 | 198 | 2.0 | 10.0 | 0.00 | 0.00 | 0.00 | 91 | 1001.2 |
| 20260505074555 | 72 | 162 | 1.0 | 8.0 | 0.00 | 0.00 | 0.00 | 88 | 1001.5 |
| 20260505073059 | 73 | 206 | 1.0 | 8.0 | 0.00 | 0.00 | 0.00 | 88 | 1001.8 |
| 20260505071603 | 73 | 190 | 1.0 | 11.0 | 0.00 | 0.00 | 0.00 | 86 | 1002.2 |
| 20260505070052 | 73 | 206 | 4.0 | 13.0 | 0.00 | 0.00 | 0.00 | 85 | 1002.4 |
| 20260505064544 | 73 | 170 | 0.0 | 9.0 | 0.00 | 0.00 | 0.00 | 84 | 1002.6 |
| 20260505063050 | 74 | 201 | 1.0 | 13.0 | 0.00 | 0.00 | 0.00 | 83 | 1002.8 |
| 20260505061543 | 74 | 221 | 2.0 | 19.0 | 0.00 | 0.00 | 0.00 | 82 | 1002.8 |
| 20260505060056 | 75 | 209 | 3.0 | 14.0 | 0.00 | 0.00 | 0.00 | 81 | 1002.8 |